createdAt,value
2023-05-03T00:00:46.541Z,9.43
2023-05-03T00:01:49.289Z,9.57
2023-05-03T00:02:52.382Z,9.64
2023-05-03T00:03:54.591Z,9.55
2023-05-03T00:04:56.491Z,9.55
2023-05-03T00:06:13.416Z,9.59
2023-05-03T00:07:15.581Z,9.55
2023-05-03T00:08:17.466Z,9.66
2023-05-03T00:09:19.298Z,9.76
2023-05-03T00:10:22.000Z,9.74
2023-05-03T00:11:23.885Z,9.66
2023-05-03T00:12:25.846Z,9.74
2023-05-03T00:13:27.879Z,9.73
2023-05-03T00:14:29.731Z,9.77
2023-05-03T00:15:31.626Z,9.87
2023-05-03T00:16:33.663Z,9.84
2023-05-03T00:17:37.006Z,9.83
2023-05-03T00:18:39.048Z,9.89
2023-05-03T00:19:40.968Z,9.85
2023-05-03T00:20:42.982Z,9.83
2023-05-03T00:21:45.292Z,9.78
2023-05-03T00:22:47.200Z,9.82
2023-05-03T00:23:49.059Z,9.83
2023-05-03T00:24:50.914Z,9.82
2023-05-03T00:25:54.598Z,9.86
2023-05-03T00:26:56.570Z,9.76
2023-05-03T00:27:58.635Z,9.86
2023-05-03T00:29:00.702Z,9.90
2023-05-03T00:30:03.643Z,9.84
2023-05-03T00:31:07.688Z,9.77
2023-05-03T00:32:09.753Z,9.72
2023-05-03T00:33:11.733Z,9.77
2023-05-03T00:34:14.212Z,9.71
2023-05-03T00:35:16.349Z,9.72
2023-05-03T00:36:18.975Z,9.63
2023-05-03T00:37:21.456Z,9.47
2023-05-03T00:38:23.474Z,9.41
2023-05-03T00:39:27.202Z,9.45
2023-05-03T00:40:29.201Z,9.36
2023-05-03T00:41:31.062Z,9.30
2023-05-03T00:42:35.859Z,9.45
2023-05-03T00:43:38.379Z,9.44
2023-05-03T00:44:40.247Z,9.55
2023-05-03T00:45:42.303Z,9.40
2023-05-03T00:46:44.334Z,9.51
2023-05-03T00:47:46.384Z,9.54
2023-05-03T00:48:51.217Z,9.54
2023-05-03T00:49:53.269Z,9.60
2023-05-03T00:51:00.756Z,9.57
2023-05-03T00:52:05.224Z,9.44
2023-05-03T00:53:07.173Z,9.45
2023-05-03T00:54:10.082Z,9.50
2023-05-03T00:55:12.123Z,9.56
2023-05-03T00:56:17.866Z,9.53
2023-05-03T00:57:20.066Z,9.59
2023-05-03T00:58:21.920Z,9.62
2023-05-03T00:59:24.522Z,9.68
2023-05-03T01:00:26.801Z,9.66
2023-05-03T01:01:28.867Z,9.67
2023-05-03T01:02:30.819Z,9.61
2023-05-03T01:03:33.207Z,9.65
2023-05-03T01:04:36.016Z,9.66
2023-05-03T01:05:50.119Z,9.75
2023-05-03T01:07:01.948Z,9.80
2023-05-03T01:08:16.871Z,9.69
2023-05-03T01:10:53.765Z,9.84
2023-05-03T01:12:20.803Z,9.80
2023-05-03T01:13:50.226Z,9.68
2023-05-03T01:14:55.909Z,9.70
2023-05-03T01:16:07.671Z,9.83
2023-05-03T01:17:14.266Z,9.86
2023-05-03T01:18:19.938Z,9.89
2023-05-03T01:19:36.868Z,9.94
2023-05-03T01:20:42.736Z,9.96
2023-05-03T01:21:48.410Z,9.89
2023-05-03T01:23:00.302Z,9.90
2023-05-03T01:24:12.121Z,9.91
2023-05-03T01:25:14.822Z,9.96
2023-05-03T01:26:20.349Z,9.89
2023-05-03T01:27:22.289Z,9.83
2023-05-03T01:28:24.865Z,9.89
2023-05-03T01:29:26.726Z,9.86
2023-05-03T01:30:31.520Z,9.87
2023-05-03T01:32:59.303Z,9.89
2023-05-03T01:34:24.446Z,9.90
2023-05-03T01:35:35.783Z,9.87
2023-05-03T01:36:41.608Z,9.91
2023-05-03T01:37:43.893Z,9.91
2023-05-03T01:38:49.306Z,9.93
2023-05-03T01:40:06.508Z,9.85
2023-05-03T01:41:12.979Z,9.79
2023-05-03T01:42:15.809Z,9.86
2023-05-03T01:43:19.197Z,9.83
2023-05-03T01:44:22.552Z,9.81
2023-05-03T01:45:25.781Z,9.86
2023-05-03T01:46:28.383Z,9.87
2023-05-03T01:47:31.126Z,9.92
2023-05-03T01:48:33.615Z,9.93
2023-05-03T01:49:35.785Z,9.87
2023-05-03T01:50:37.856Z,9.84
2023-05-03T01:51:39.865Z,9.87
2023-05-03T01:52:41.901Z,9.92
2023-05-03T01:53:43.773Z,9.90
2023-05-03T01:54:45.832Z,9.81
2023-05-03T01:55:47.736Z,9.77
2023-05-03T01:56:49.898Z,9.84
2023-05-03T01:57:51.821Z,9.79
2023-05-03T01:58:54.967Z,9.83
2023-05-03T01:59:56.814Z,9.87
2023-05-03T02:00:58.819Z,9.87
2023-05-03T02:02:00.852Z,9.86
2023-05-03T02:03:02.741Z,9.88
2023-05-03T02:04:04.746Z,9.86
2023-05-03T02:05:07.686Z,9.93
2023-05-03T02:06:09.691Z,9.97
2023-05-03T02:07:11.692Z,10.02
2023-05-03T02:08:13.687Z,10.02
2023-05-03T02:09:15.600Z,10.01
2023-05-03T02:10:17.617Z,10.05
2023-05-03T02:11:20.421Z,10.06
2023-05-03T02:12:22.425Z,10.08
2023-05-03T02:13:24.298Z,10.02
2023-05-03T02:14:26.160Z,10.05
2023-05-03T02:15:28.025Z,10.04
2023-05-03T02:16:30.057Z,10.04
2023-05-03T02:17:32.042Z,10.04
2023-05-03T02:18:35.130Z,10.02
2023-05-03T02:19:37.111Z,10.02
2023-05-03T02:20:45.655Z,10.04
2023-05-03T02:21:48.712Z,9.94
2023-05-03T02:22:50.599Z,9.97
2023-05-03T02:23:52.467Z,10.06
2023-05-03T02:24:54.319Z,10.06
2023-05-03T02:25:57.862Z,10.11
2023-05-03T02:27:00.098Z,10.16
2023-05-03T02:28:02.025Z,10.19
2023-05-03T02:29:06.035Z,10.28
2023-05-03T02:30:08.916Z,10.26
2023-05-03T02:31:10.927Z,10.30
2023-05-03T02:32:12.952Z,10.26
2023-05-03T02:33:14.813Z,10.28
2023-05-03T02:34:16.708Z,10.26
2023-05-03T02:35:18.955Z,10.21
2023-05-03T02:36:20.922Z,10.20
2023-05-03T02:37:22.799Z,10.32
2023-05-03T02:38:24.866Z,10.26
2023-05-03T02:39:26.935Z,10.23
2023-05-03T02:40:28.994Z,10.41
2023-05-03T02:41:30.848Z,10.26
2023-05-03T02:42:32.765Z,10.32
2023-05-03T02:43:34.817Z,10.33
2023-05-03T02:44:37.131Z,10.29
2023-05-03T02:45:39.110Z,10.27
2023-05-03T02:46:41.401Z,10.27
2023-05-03T02:47:43.869Z,10.34
2023-05-03T02:48:45.889Z,10.43
2023-05-03T02:49:47.997Z,10.35
2023-05-03T02:50:50.126Z,10.32
2023-05-03T02:51:52.233Z,10.36
2023-05-03T02:52:54.088Z,10.43
2023-05-03T02:53:56.061Z,10.32
2023-05-03T02:54:57.954Z,10.47
2023-05-03T02:55:59.917Z,10.47
2023-05-03T02:57:01.861Z,10.57
2023-05-03T02:58:03.734Z,10.48
2023-05-03T02:59:05.811Z,10.43
2023-05-03T03:00:10.391Z,10.50
2023-05-03T03:01:12.431Z,10.48
2023-05-03T03:02:14.670Z,10.44
2023-05-03T03:03:16.628Z,10.44
2023-05-03T03:04:18.721Z,10.26
2023-05-03T03:05:20.670Z,10.33
2023-05-03T03:06:22.842Z,10.48
2023-05-03T03:07:24.828Z,10.55
2023-05-03T03:08:26.774Z,10.61
2023-05-03T03:09:28.768Z,10.59
2023-05-03T03:10:32.532Z,10.49
2023-05-03T03:11:35.892Z,10.61
2023-05-03T03:12:38.773Z,10.49
2023-05-03T03:13:40.713Z,10.49
2023-05-03T03:14:42.591Z,10.44
2023-05-03T03:15:44.532Z,10.57
2023-05-03T03:16:46.731Z,10.55
2023-05-03T03:17:48.703Z,10.47
2023-05-03T03:18:50.806Z,10.62
2023-05-03T03:19:52.800Z,10.49
2023-05-03T03:20:54.791Z,10.47
2023-05-03T03:21:56.637Z,10.60
2023-05-03T03:22:59.697Z,10.65
2023-05-03T03:24:01.849Z,10.76
2023-05-03T03:25:05.103Z,10.70
2023-05-03T03:26:10.279Z,10.66
2023-05-03T03:27:12.845Z,10.77
2023-05-03T03:28:14.810Z,10.69
2023-05-03T03:29:16.780Z,10.80
2023-05-03T03:30:18.895Z,10.73
2023-05-03T03:31:20.824Z,10.67
2023-05-03T03:32:22.734Z,10.84
2023-05-03T03:33:24.826Z,10.96
2023-05-03T03:34:26.809Z,11.06
2023-05-03T03:35:30.066Z,10.99
2023-05-03T03:36:32.311Z,10.77
2023-05-03T03:37:34.197Z,10.70
2023-05-03T03:38:36.160Z,10.70
2023-05-03T03:39:38.224Z,10.91
2023-05-03T03:40:40.191Z,10.83
2023-05-03T03:41:42.753Z,10.85
2023-05-03T03:42:44.951Z,10.98
2023-05-03T03:43:46.811Z,11.07
2023-05-03T03:44:53.176Z,11.02
2023-05-03T03:45:55.068Z,11.03
2023-05-03T03:46:57.462Z,11.05
2023-05-03T03:47:59.572Z,11.01
2023-05-03T03:49:02.428Z,10.99
2023-05-03T03:50:05.638Z,11.07
2023-05-03T03:51:09.029Z,11.09
2023-05-03T03:52:10.896Z,11.21
2023-05-03T03:53:12.857Z,11.07
2023-05-03T03:54:14.734Z,11.01
2023-05-03T03:55:16.800Z,11.05
2023-05-03T03:56:20.092Z,11.22
2023-05-03T03:57:22.343Z,11.18
2023-05-03T03:58:24.260Z,11.24
2023-05-03T03:59:26.635Z,11.18
2023-05-03T04:00:28.603Z,11.09
2023-05-03T04:01:30.666Z,11.15
2023-05-03T04:02:32.667Z,11.25
2023-05-03T04:03:38.048Z,11.20
2023-05-03T04:04:40.161Z,11.20
2023-05-03T04:05:42.022Z,11.07
2023-05-03T04:06:44.031Z,11.30
2023-05-03T04:07:46.045Z,11.24
2023-05-03T04:08:47.940Z,11.36
2023-05-03T04:09:49.802Z,11.27
2023-05-03T04:10:51.991Z,11.29
2023-05-03T04:11:53.952Z,11.20
2023-05-03T04:12:55.808Z,11.16
2023-05-03T04:13:57.659Z,11.12
2023-05-03T04:14:59.499Z,11.36
2023-05-03T04:16:02.524Z,11.34
2023-05-03T04:17:05.177Z,11.34
2023-05-03T04:18:07.289Z,11.25
2023-05-03T04:19:09.240Z,11.40
2023-05-03T04:20:12.546Z,11.38
2023-05-03T04:21:14.412Z,11.40
2023-05-03T04:22:16.272Z,11.53
2023-05-03T04:23:18.132Z,11.53
2023-05-03T04:24:20.049Z,11.51
2023-05-03T04:25:23.040Z,11.36
2023-05-03T04:26:31.819Z,11.36
2023-05-03T04:27:28.824Z,11.39
2023-05-03T04:28:30.891Z,11.34
2023-05-03T04:29:32.755Z,11.33
2023-05-03T04:30:34.953Z,11.41
2023-05-03T04:31:38.975Z,11.63
2023-05-03T04:32:41.862Z,11.44
2023-05-03T04:33:45.362Z,11.59
2023-05-03T04:34:50.534Z,11.66
2023-05-03T04:35:53.305Z,11.77
2023-05-03T04:36:55.280Z,11.76
2023-05-03T04:37:57.158Z,11.81
2023-05-03T04:38:59.050Z,11.95
2023-05-03T04:40:01.383Z,11.93
2023-05-03T04:41:03.568Z,12.02
2023-05-03T04:42:05.438Z,12.16
2023-05-03T04:43:07.405Z,12.33
2023-05-03T04:44:09.284Z,12.53
2023-05-03T04:45:11.919Z,12.65
2023-05-03T04:46:14.141Z,12.73
2023-05-03T04:47:16.183Z,12.96
2023-05-03T04:48:18.209Z,12.92
2023-05-03T04:49:20.248Z,13.14
2023-05-03T04:50:22.394Z,13.22
2023-05-03T04:51:24.305Z,12.90
2023-05-03T04:52:26.255Z,13.29
2023-05-03T04:53:28.345Z,12.95
2023-05-03T04:54:30.209Z,13.23
2023-05-03T04:55:32.221Z,13.36
2023-05-03T04:56:34.470Z,12.94
2023-05-03T04:57:36.921Z,13.19
2023-05-03T04:58:38.962Z,13.56
2023-05-03T04:59:40.856Z,13.46
2023-05-03T05:00:44.472Z,13.44
2023-05-03T05:01:48.272Z,13.78
2023-05-03T05:02:50.369Z,13.87
2023-05-03T05:03:52.912Z,13.69
2023-05-03T05:04:54.909Z,13.81
2023-05-03T05:05:56.768Z,14.01
2023-05-03T05:06:58.842Z,14.48
2023-05-03T05:08:00.840Z,13.69
2023-05-03T05:09:03.096Z,13.91
2023-05-03T05:10:07.744Z,14.09
2023-05-03T05:11:10.294Z,14.56
2023-05-03T05:12:12.425Z,14.88
2023-05-03T05:13:15.090Z,14.42
2023-05-03T05:14:16.958Z,14.79
2023-05-03T05:15:18.806Z,15.09
2023-05-03T05:16:20.805Z,14.78
2023-05-03T05:17:24.005Z,14.95
2023-05-03T05:18:26.105Z,14.95
2023-05-03T05:19:28.114Z,14.64
2023-05-03T05:20:30.230Z,15.16
2023-05-03T05:21:32.224Z,15.66
2023-05-03T05:22:34.091Z,15.54
2023-05-03T05:23:35.957Z,15.76
2023-05-03T05:24:37.866Z,15.93
2023-05-03T05:25:39.724Z,16.12
2023-05-03T05:26:43.777Z,16.14
2023-05-03T05:27:45.662Z,15.73
2023-05-03T05:28:47.537Z,15.51
2023-05-03T05:29:49.418Z,15.58
2023-05-03T05:30:51.390Z,15.89
2023-05-03T05:31:53.444Z,15.72
2023-05-03T05:32:55.404Z,15.30
2023-05-03T05:33:58.560Z,15.39
2023-05-03T05:35:00.470Z,15.54
2023-05-03T05:36:03.567Z,16.28
2023-05-03T05:37:05.649Z,16.35
2023-05-03T05:38:08.112Z,16.33
2023-05-03T05:39:10.486Z,16.09
2023-05-03T05:40:14.417Z,15.90
2023-05-03T05:41:16.325Z,16.35
2023-05-03T05:42:19.085Z,16.10
2023-05-03T05:43:20.979Z,16.09
2023-05-03T05:44:22.829Z,16.19
2023-05-03T05:45:24.726Z,16.28
2023-05-03T05:46:27.108Z,16.16
2023-05-03T05:47:29.143Z,16.73
2023-05-03T05:48:31.170Z,16.68
2023-05-03T05:49:33.282Z,16.79
2023-05-03T05:50:35.722Z,16.68
2023-05-03T05:51:37.691Z,16.59
2023-05-03T05:52:39.739Z,16.60
2023-05-03T05:53:41.611Z,17.17
2023-05-03T05:54:43.545Z,17.16
2023-05-03T05:55:45.428Z,17.14
2023-05-03T05:56:47.496Z,17.05
2023-05-03T05:57:49.516Z,16.87
2023-05-03T05:58:51.491Z,16.84
2023-05-03T05:59:54.209Z,17.28
2023-05-03T06:01:00.207Z,17.40
2023-05-03T06:02:02.972Z,17.52
2023-05-03T06:03:06.206Z,16.73
2023-05-03T06:04:09.092Z,17.30
2023-05-03T06:05:11.226Z,17.82
2023-05-03T06:06:13.576Z,17.79
2023-05-03T06:07:15.529Z,18.06
2023-05-03T06:08:17.454Z,18.15
2023-05-03T06:09:24.804Z,18.33
2023-05-03T06:10:25.118Z,18.04
2023-05-03T06:11:29.258Z,18.03
2023-05-03T06:12:31.147Z,18.11
2023-05-03T06:13:33.020Z,18.10
2023-05-03T06:14:35.062Z,17.48
2023-05-03T06:15:36.990Z,18.35
2023-05-03T06:16:39.108Z,18.96
2023-05-03T06:17:41.176Z,18.99
2023-05-03T06:18:43.134Z,18.51
2023-05-03T06:19:45.191Z,18.83
2023-05-03T06:20:50.422Z,18.24
2023-05-03T06:21:52.963Z,18.57
2023-05-03T06:22:54.920Z,19.06
2023-05-03T06:23:56.818Z,18.75
2023-05-03T06:24:58.953Z,18.59
2023-05-03T06:26:00.929Z,18.48
2023-05-03T06:27:02.960Z,19.10
2023-05-03T06:28:05.521Z,18.68
2023-05-03T06:29:07.381Z,18.50
2023-05-03T06:30:10.941Z,18.63
2023-05-03T06:31:13.741Z,19.11
2023-05-03T06:32:16.259Z,18.79
2023-05-03T06:33:18.145Z,18.46
2023-05-03T06:34:21.088Z,18.73
2023-05-03T06:35:23.045Z,18.47
2023-05-03T06:36:25.322Z,18.40
2023-05-03T06:37:27.301Z,19.02
2023-05-03T06:38:29.170Z,19.41
2023-05-03T06:39:31.138Z,19.28
2023-05-03T06:40:33.830Z,19.40
2023-05-03T06:41:36.308Z,19.00
2023-05-03T06:42:38.310Z,19.03
2023-05-03T06:43:40.268Z,18.64
2023-05-03T06:44:44.223Z,18.92
2023-05-03T06:45:46.232Z,18.97
2023-05-03T06:46:49.784Z,18.83
2023-05-03T06:47:52.814Z,19.21
2023-05-03T06:48:56.063Z,19.64
2023-05-03T06:49:58.023Z,19.73
2023-05-03T06:51:00.147Z,19.31
2023-05-03T06:52:02.048Z,20.09
2023-05-03T06:53:03.922Z,19.55
2023-05-03T06:54:05.916Z,19.39
2023-05-03T06:55:09.454Z,19.44
2023-05-03T06:56:11.948Z,18.89
2023-05-03T06:57:13.911Z,19.03
2023-05-03T06:58:16.414Z,19.06
2023-05-03T06:59:18.788Z,19.24
2023-05-03T07:00:23.103Z,19.36
2023-05-03T07:01:25.187Z,19.03
2023-05-03T07:02:27.404Z,18.88
2023-05-03T07:03:29.590Z,18.98
2023-05-03T07:04:31.593Z,19.21
2023-05-03T07:05:34.053Z,19.42
2023-05-03T07:06:48.158Z,19.63
2023-05-03T07:07:40.020Z,19.23
2023-05-03T07:08:42.003Z,19.43
2023-05-03T07:09:44.169Z,19.42
2023-05-03T07:10:46.431Z,19.29
2023-05-03T07:11:49.220Z,19.20
2023-05-03T07:12:51.766Z,19.23
2023-05-03T07:13:54.172Z,19.33
2023-05-03T07:14:56.155Z,19.80
2023-05-03T07:16:02.049Z,19.98
2023-05-03T07:17:03.177Z,19.67
2023-05-03T07:18:05.247Z,19.82
2023-05-03T07:19:07.542Z,20.25
2023-05-03T07:20:11.989Z,20.78
2023-05-03T07:21:14.575Z,20.76
2023-05-03T07:22:17.225Z,20.43
2023-05-03T07:23:20.428Z,20.50
2023-05-03T07:24:23.523Z,20.34
2023-05-03T07:25:25.667Z,19.98
2023-05-03T07:26:27.805Z,20.09
2023-05-03T07:27:29.644Z,20.13
2023-05-03T07:28:31.557Z,20.32
2023-05-03T07:29:33.942Z,20.44
2023-05-03T07:30:35.955Z,20.56
2023-05-03T07:31:39.323Z,20.87
2023-05-03T07:32:41.424Z,20.71
2023-05-03T07:33:43.634Z,20.48
2023-05-03T07:34:45.672Z,20.42
2023-05-03T07:35:48.090Z,20.35
2023-05-03T07:36:52.248Z,20.46
2023-05-03T07:37:54.793Z,20.27
2023-05-03T07:38:58.665Z,19.87
2023-05-03T07:40:00.791Z,20.24
2023-05-03T07:41:03.053Z,20.29
2023-05-03T07:42:05.591Z,20.44
2023-05-03T07:43:09.282Z,20.61
2023-05-03T07:44:11.327Z,20.62
2023-05-03T07:45:13.200Z,20.37
2023-05-03T07:46:15.362Z,19.96
2023-05-03T07:47:17.376Z,20.14
2023-05-03T07:48:19.492Z,20.20
2023-05-03T07:49:21.475Z,20.20
2023-05-03T07:50:23.432Z,20.05
2023-05-03T07:51:25.312Z,19.78
2023-05-03T07:52:27.663Z,19.87
2023-05-03T07:53:29.545Z,19.99
2023-05-03T07:54:31.524Z,19.77
2023-05-03T07:55:33.398Z,19.73
2023-05-03T07:56:35.657Z,19.62
2023-05-03T07:57:37.520Z,19.76
2023-05-03T07:58:40.859Z,20.07
2023-05-03T07:59:43.206Z,20.11
2023-05-03T08:00:45.297Z,20.04
2023-05-03T08:01:47.157Z,20.32
2023-05-03T08:02:49.219Z,19.87
2023-05-03T08:03:53.066Z,20.22
2023-05-03T08:04:55.454Z,20.32
2023-05-03T08:05:57.476Z,19.92
2023-05-03T08:07:02.545Z,20.00
2023-05-03T08:08:05.038Z,20.16
2023-05-03T08:09:06.897Z,20.13
2023-05-03T08:10:10.337Z,20.26
2023-05-03T08:11:12.433Z,20.11
2023-05-03T08:12:14.324Z,20.48
2023-05-03T08:13:16.878Z,20.74
2023-05-03T08:14:18.733Z,20.09
2023-05-03T08:15:20.754Z,20.16
2023-05-03T08:16:23.179Z,20.55
2023-05-03T08:17:25.413Z,20.11
2023-05-03T08:18:27.390Z,20.11
2023-05-03T08:19:29.670Z,20.01
2023-05-03T08:20:31.777Z,20.41
2023-05-03T08:21:33.809Z,20.41
2023-05-03T08:22:35.886Z,20.39
2023-05-03T08:23:37.742Z,20.21
2023-05-03T08:24:39.894Z,20.01
2023-05-03T08:25:41.747Z,20.10
2023-05-03T08:26:44.291Z,20.05
2023-05-03T08:27:46.234Z,20.10
2023-05-03T08:28:48.081Z,20.29
2023-05-03T08:29:49.951Z,20.15
2023-05-03T08:30:51.986Z,20.49
2023-05-03T08:31:53.898Z,20.43
2023-05-03T08:32:56.039Z,20.29
2023-05-03T08:33:58.188Z,20.50
2023-05-03T08:35:00.032Z,20.87
2023-05-03T08:36:02.896Z,20.74
2023-05-03T08:37:05.104Z,20.77
2023-05-03T08:38:08.901Z,20.58
2023-05-03T08:39:10.776Z,20.89
2023-05-03T08:40:13.823Z,21.02
2023-05-03T08:41:30.859Z,20.59
2023-05-03T08:42:33.110Z,20.76
2023-05-03T08:43:38.730Z,20.92
2023-05-03T08:44:48.149Z,20.73
2023-05-03T08:45:50.361Z,20.87
2023-05-03T08:46:52.344Z,21.05
2023-05-03T08:47:54.831Z,20.77
2023-05-03T08:48:59.314Z,20.87
2023-05-03T08:50:06.496Z,20.68
2023-05-03T08:51:10.391Z,20.72
2023-05-03T08:52:14.428Z,20.79
2023-05-03T08:53:16.403Z,20.85
2023-05-03T08:54:18.317Z,20.60
2023-05-03T08:55:20.523Z,20.64
2023-05-03T08:56:35.500Z,20.78
2023-05-03T08:57:37.644Z,20.82
2023-05-03T08:58:39.542Z,20.97
2023-05-03T08:59:51.563Z,21.09
2023-05-03T09:00:53.740Z,20.99
2023-05-03T09:01:55.637Z,21.12
2023-05-03T09:02:58.431Z,21.32
2023-05-03T09:04:00.536Z,21.25
2023-05-03T09:05:03.169Z,21.08
2023-05-03T09:06:19.112Z,20.93
2023-05-03T09:07:21.561Z,20.91
2023-05-03T09:08:23.549Z,20.82
2023-05-03T09:09:31.438Z,21.08
2023-05-03T09:10:39.227Z,20.88
2023-05-03T09:11:41.226Z,21.22
2023-05-03T09:12:43.093Z,21.49
2023-05-03T09:13:45.028Z,21.13
2023-05-03T09:14:46.886Z,21.33
2023-05-03T09:15:58.421Z,21.41
2023-05-03T09:17:15.901Z,21.38
2023-05-03T09:18:19.607Z,21.60
2023-05-03T09:19:21.686Z,20.70
2023-05-03T09:20:27.511Z,20.86
2023-05-03T09:21:30.187Z,20.70
2023-05-03T09:22:32.773Z,20.99
2023-05-03T09:23:34.691Z,21.07
2023-05-03T09:24:37.318Z,21.14
2023-05-03T09:25:41.785Z,21.10
2023-05-03T09:26:45.727Z,21.18
2023-05-03T09:27:51.542Z,21.26
2023-05-03T09:28:53.695Z,21.24
2023-05-03T09:29:55.587Z,21.52
2023-05-03T09:31:05.980Z,21.62
2023-05-03T09:32:07.977Z,21.31
2023-05-03T09:33:10.525Z,21.22
2023-05-03T09:34:23.109Z,21.00
2023-05-03T09:35:25.173Z,21.28
2023-05-03T09:36:27.595Z,21.37
2023-05-03T09:37:38.797Z,21.57
2023-05-03T09:38:40.888Z,21.77
2023-05-03T09:39:45.344Z,21.88
2023-05-03T09:40:47.525Z,21.86
2023-05-03T09:41:50.129Z,21.74
2023-05-03T09:43:09.346Z,21.74
2023-05-03T09:44:12.569Z,21.62
2023-05-03T09:45:18.231Z,21.42
2023-05-03T09:46:20.272Z,21.42
2023-05-03T09:47:22.278Z,21.63
2023-05-03T09:48:25.604Z,21.45
2023-05-03T09:49:27.626Z,21.75
2023-05-03T09:50:32.149Z,21.64
2023-05-03T09:51:34.650Z,21.62
2023-05-03T09:52:37.796Z,21.40
2023-05-03T09:53:40.430Z,21.28
2023-05-03T09:54:43.801Z,21.23
2023-05-03T09:55:47.976Z,21.12
2023-05-03T09:56:51.365Z,21.03
2023-05-03T09:57:55.834Z,21.13
2023-05-03T09:58:58.200Z,21.10
2023-05-03T10:00:00.572Z,21.14
2023-05-03T10:01:04.259Z,21.31
2023-05-03T10:02:08.146Z,21.32
2023-05-03T10:03:11.621Z,21.43
2023-05-03T10:04:18.418Z,21.58
2023-05-03T10:05:21.350Z,21.54
2023-05-03T10:06:32.723Z,21.73
2023-05-03T10:07:34.835Z,21.70
2023-05-03T10:08:43.483Z,21.87
2023-05-03T10:09:47.163Z,21.88
2023-05-03T10:10:50.466Z,21.10
2023-05-03T10:11:54.016Z,21.26
2023-05-03T10:12:57.018Z,21.33
2023-05-03T10:14:01.641Z,21.32
2023-05-03T10:15:07.613Z,21.57
2023-05-03T10:16:16.472Z,21.73
2023-05-03T10:17:45.634Z,21.87
2023-05-03T10:18:33.613Z,21.81
2023-05-03T10:21:04.192Z,21.98
2023-05-03T10:22:10.909Z,21.99
2023-05-03T10:23:13.508Z,22.01
2023-05-03T10:24:16.842Z,21.70
2023-05-03T10:25:18.824Z,21.64
2023-05-03T10:26:20.797Z,21.76
2023-05-03T10:27:22.660Z,21.43
2023-05-03T10:28:24.519Z,21.30
2023-05-03T10:29:39.386Z,21.43
2023-05-03T10:30:42.818Z,21.53
2023-05-03T10:31:48.486Z,21.56
2023-05-03T10:32:51.102Z,21.65
2023-05-03T10:33:53.190Z,21.65
2023-05-03T10:35:14.893Z,21.84
2023-05-03T10:36:17.252Z,21.97
2023-05-03T10:37:22.868Z,22.10
2023-05-03T10:38:27.253Z,21.83
2023-05-03T10:39:30.432Z,21.57
2023-05-03T10:40:43.627Z,21.75
2023-05-03T10:42:03.959Z,21.87
2023-05-03T10:43:05.888Z,21.78
2023-05-03T10:44:35.917Z,21.71
2023-05-03T10:45:38.349Z,21.75
2023-05-03T10:46:43.385Z,21.71
2023-05-03T10:48:05.879Z,21.67
2023-05-03T10:49:18.070Z,21.57
2023-05-03T10:50:22.023Z,21.64
2023-05-03T10:51:31.330Z,21.82
2023-05-03T10:52:43.128Z,21.89
2023-05-03T10:53:45.222Z,22.08
2023-05-03T10:54:47.184Z,22.16
2023-05-03T10:57:12.089Z,21.88
2023-05-03T10:58:15.506Z,22.00
2023-05-03T10:59:17.545Z,21.99
2023-05-03T11:00:41.417Z,22.20
2023-05-03T11:01:49.935Z,22.26
2023-05-03T11:03:10.976Z,22.11
2023-05-03T11:04:19.768Z,22.07
2023-05-03T11:05:24.108Z,22.08
2023-05-03T11:06:31.886Z,22.10
2023-05-03T11:07:34.169Z,22.12
2023-05-03T11:08:36.234Z,22.21
2023-05-03T11:09:38.078Z,22.42
2023-05-03T11:10:40.600Z,22.41
2023-05-03T11:11:42.565Z,22.53
2023-05-03T11:12:44.728Z,22.28
2023-05-03T11:13:46.603Z,22.30
2023-05-03T11:14:51.593Z,22.24
2023-05-03T11:15:56.155Z,22.24
2023-05-03T11:16:58.779Z,22.25
2023-05-03T11:18:02.789Z,22.14
2023-05-03T11:19:05.432Z,22.26
2023-05-03T11:20:09.140Z,22.38
2023-05-03T11:21:12.211Z,22.07
2023-05-03T11:22:14.276Z,22.22
2023-05-03T11:23:16.117Z,22.42
2023-05-03T11:24:20.017Z,22.41
2023-05-03T11:25:21.932Z,22.40
2023-05-03T11:26:23.989Z,22.45
2023-05-03T11:27:26.610Z,22.31
2023-05-03T11:28:28.581Z,22.16
2023-05-03T11:29:30.498Z,22.17
2023-05-03T11:30:34.041Z,22.27
2023-05-03T11:31:36.167Z,22.35
2023-05-03T11:32:38.678Z,22.35
2023-05-03T11:33:41.014Z,22.28
2023-05-03T11:34:43.349Z,22.47
2023-05-03T11:35:45.434Z,22.41
2023-05-03T11:36:47.518Z,22.28
2023-05-03T11:37:49.471Z,22.54
2023-05-03T11:38:51.339Z,22.58
2023-05-03T11:39:53.713Z,22.55
2023-05-03T11:40:55.779Z,22.46
2023-05-03T11:42:03.586Z,22.70
2023-05-03T11:43:05.781Z,22.77
2023-05-03T11:44:16.885Z,22.58
2023-05-03T11:45:12.096Z,22.35
2023-05-03T11:46:20.986Z,22.32
2023-05-03T11:47:24.502Z,22.35
2023-05-03T11:48:26.549Z,22.33
2023-05-03T11:49:28.535Z,22.31
2023-05-03T11:50:48.771Z,22.43
2023-05-03T11:51:53.816Z,22.45
2023-05-03T11:52:55.709Z,22.37
2023-05-03T11:54:06.856Z,22.49
2023-05-03T11:55:06.754Z,22.40
2023-05-03T11:56:11.794Z,22.40
2023-05-03T11:57:14.235Z,22.60
2023-05-03T11:59:39.714Z,22.60
2023-05-03T12:00:50.384Z,22.53
2023-05-03T12:01:53.066Z,22.49
2023-05-03T12:02:59.156Z,22.41
2023-05-03T12:04:03.498Z,22.50
2023-05-03T12:05:08.145Z,22.51
2023-05-03T12:06:11.957Z,22.67
2023-05-03T12:07:18.527Z,22.67
2023-05-03T12:08:20.853Z,22.66
2023-05-03T12:09:26.745Z,22.61
2023-05-03T12:10:32.920Z,22.42
2023-05-03T12:11:43.958Z,22.63
2023-05-03T12:12:57.115Z,22.84
2023-05-03T12:14:01.057Z,23.02
2023-05-03T12:15:04.534Z,22.89
2023-05-03T12:16:14.358Z,22.75
2023-05-03T12:17:15.619Z,22.72
2023-05-03T12:18:18.792Z,22.72
2023-05-03T12:19:32.996Z,22.65
2023-05-03T12:21:58.834Z,22.70
2023-05-03T12:22:57.652Z,22.75
2023-05-03T12:23:57.876Z,23.00
2023-05-03T12:25:00.224Z,23.06
2023-05-03T12:26:04.957Z,23.14
2023-05-03T12:27:08.585Z,23.28
2023-05-03T12:29:14.919Z,22.86
2023-05-03T12:30:17.961Z,22.80
2023-05-03T12:31:22.717Z,22.72
2023-05-03T12:32:24.109Z,22.82
2023-05-03T12:33:28.433Z,22.91
2023-05-03T12:34:34.800Z,22.98
2023-05-03T12:35:35.088Z,22.87
2023-05-03T12:36:38.496Z,22.84
2023-05-03T12:37:43.467Z,22.70
2023-05-03T12:38:44.853Z,22.60
2023-05-03T12:39:54.473Z,22.60
2023-05-03T12:40:51.254Z,22.64
2023-05-03T12:42:06.879Z,22.68
2023-05-03T12:42:57.416Z,22.71
2023-05-03T12:44:00.651Z,22.56
2023-05-03T12:45:04.758Z,22.76
2023-05-03T12:46:32.399Z,22.75
2023-05-03T12:47:15.864Z,22.71
2023-05-03T12:48:15.548Z,22.91
2023-05-03T12:49:17.816Z,22.91
2023-05-03T12:50:24.437Z,22.90
2023-05-03T12:51:25.893Z,22.90
2023-05-03T12:53:31.514Z,22.84
2023-05-03T12:54:34.322Z,22.84
2023-05-03T12:55:43.466Z,22.86
2023-05-03T12:56:47.561Z,22.91
2023-05-03T12:57:53.582Z,23.08
2023-05-03T13:00:01.655Z,22.95
2023-05-03T13:04:41.596Z,23.24
2023-05-03T13:05:30.658Z,23.17
2023-05-03T13:06:17.891Z,23.25
2023-05-03T13:07:28.059Z,22.98
2023-05-03T13:08:33.390Z,23.04
2023-05-03T13:09:38.908Z,23.24
2023-05-03T13:10:34.423Z,23.28
2023-05-03T13:11:36.541Z,23.42
2023-05-03T13:12:38.740Z,23.55
2023-05-03T13:13:40.705Z,23.67
2023-05-03T13:14:42.565Z,23.66
2023-05-03T13:15:44.464Z,23.54
2023-05-03T13:16:48.395Z,23.58
2023-05-03T13:17:52.181Z,23.62
2023-05-03T13:18:54.807Z,23.67
2023-05-03T13:19:56.803Z,23.66
2023-05-03T13:20:58.758Z,23.64
2023-05-03T13:22:00.671Z,23.69
2023-05-03T13:23:02.957Z,23.69
2023-05-03T13:24:05.954Z,23.73
2023-05-03T13:25:08.159Z,23.71
2023-05-03T13:26:10.486Z,23.52
2023-05-03T13:27:12.339Z,23.49
2023-05-03T13:28:14.193Z,23.25
2023-05-03T13:29:16.072Z,22.99
2023-05-03T13:30:20.555Z,23.11
2023-05-03T13:31:22.480Z,23.22
2023-05-03T13:32:24.692Z,23.33
2023-05-03T13:33:26.737Z,23.36
2023-05-03T13:34:28.713Z,23.40
2023-05-03T13:35:31.027Z,23.49
2023-05-03T13:36:33.009Z,23.01
2023-05-03T13:37:35.274Z,23.26
2023-05-03T13:38:37.225Z,23.38
2023-05-03T13:39:39.118Z,23.44
2023-05-03T13:40:41.172Z,23.37
2023-05-03T13:41:44.883Z,23.40
2023-05-03T13:42:47.759Z,23.04
2023-05-03T13:43:49.627Z,23.06
2023-05-03T13:44:51.704Z,23.18
2023-05-03T13:46:01.487Z,23.20
2023-05-03T13:47:03.510Z,23.24
2023-05-03T13:48:17.382Z,23.26
2023-05-03T13:49:10.550Z,23.21
2023-05-03T13:50:13.248Z,23.05
2023-05-03T13:51:15.592Z,23.12
2023-05-03T13:52:19.624Z,23.09
2023-05-03T13:53:21.633Z,23.12
2023-05-03T13:54:23.499Z,23.19
2023-05-03T13:55:25.467Z,23.30
2023-05-03T13:56:29.522Z,23.25